createdAt,value
2022-10-10T00:01:44.419Z,101082.44
2022-10-10T00:04:12.656Z,101086.84
2022-10-10T00:06:40.539Z,101084.09
2022-10-10T00:09:08.402Z,101077.81
2022-10-10T00:11:37.659Z,101080.56
2022-10-10T00:14:05.928Z,101082.44
2022-10-10T00:16:33.830Z,101085.16
2022-10-10T00:19:01.689Z,101087.88
2022-10-10T00:21:29.680Z,101087.88
2022-10-10T00:23:57.819Z,101078.88
2022-10-10T00:26:25.648Z,101084.09
2022-10-10T00:28:54.906Z,101087.88
2022-10-10T00:31:22.811Z,101084.53
2022-10-10T00:33:50.981Z,101089.78
2022-10-10T00:36:20.552Z,101086.22
2022-10-10T00:38:48.489Z,101093.56
2022-10-10T00:41:16.359Z,101086.44
2022-10-10T00:43:44.526Z,101077.41
2022-10-10T00:46:13.759Z,101079.31
2022-10-10T00:48:42.862Z,101083.94
2022-10-10T00:51:11.372Z,101087.47
2022-10-10T00:53:40.736Z,101083.69
2022-10-10T00:56:08.669Z,101076.38
2022-10-10T00:58:36.635Z,101077.41
2022-10-10T01:01:04.528Z,101075.53
2022-10-10T01:03:34.075Z,101074.47
2022-10-10T01:06:01.933Z,101067.34
2022-10-10T01:08:29.804Z,101062.72
2022-10-10T01:11:07.049Z,101053.56
2022-10-10T01:13:38.362Z,101061.06
2022-10-10T01:16:08.317Z,101061.91
2022-10-10T01:18:39.561Z,101060.00
2022-10-10T01:21:13.087Z,101066.31
2022-10-10T01:24:22.525Z,101062.72
2022-10-10T01:27:25.404Z,101060.00
2022-10-10T01:29:57.663Z,101057.75
2022-10-10T01:32:31.432Z,101040.44
2022-10-10T01:35:08.846Z,101057.28
2022-10-10T01:37:41.172Z,101051.84
2022-10-10T01:40:12.776Z,101015.75
2022-10-10T01:42:43.030Z,101044.13
2022-10-10T01:45:12.569Z,101047.44
2022-10-10T01:47:40.457Z,101046.59
2022-10-10T01:50:09.677Z,101044.72
2022-10-10T01:52:42.686Z,101037.63
2022-10-10T01:55:30.415Z,101039.50
2022-10-10T01:58:04.784Z,101039.72
2022-10-10T02:00:36.835Z,101034.28
2022-10-10T02:03:08.445Z,101026.31
2022-10-10T02:05:38.714Z,101033.44
2022-10-10T02:08:08.846Z,101030.91
2022-10-10T02:10:38.382Z,101033.44
2022-10-10T02:13:06.521Z,101028.81
2022-10-10T02:15:38.072Z,101023.38
2022-10-10T02:18:06.155Z,101011.69
2022-10-10T02:20:34.043Z,101024.22
2022-10-10T02:23:02.190Z,101028.59
2022-10-10T02:25:31.120Z,101017.69
2022-10-10T02:28:04.151Z,101019.59
2022-10-10T02:30:32.384Z,101011.41
2022-10-10T02:33:02.357Z,101014.97
2022-10-10T02:35:31.967Z,101000.34
2022-10-10T02:38:00.008Z,101004.91
2022-10-10T02:40:29.497Z,101008.44
2022-10-10T02:42:57.382Z,101003.84
2022-10-10T02:45:25.228Z,100999.47
2022-10-10T02:47:53.094Z,101001.09
2022-10-10T02:50:22.413Z,101001.94
2022-10-10T02:52:50.510Z,100991.03
2022-10-10T02:55:18.899Z,101000.06
2022-10-10T02:57:46.775Z,100993.75
2022-10-10T03:00:15.341Z,100991.03
2022-10-10T03:02:43.214Z,100990.22
2022-10-10T03:05:11.565Z,100987.47
2022-10-10T03:07:40.825Z,100980.38
2022-10-10T03:10:09.396Z,100985.84
2022-10-10T03:12:37.279Z,100980.38
2022-10-10T03:15:11.664Z,100985.84
2022-10-10T03:17:39.922Z,100985.00
2022-10-10T03:20:09.197Z,100985.84
2022-10-10T03:22:37.101Z,100972.84
2022-10-10T03:25:07.511Z,100984.38
2022-10-10T03:27:35.343Z,100983.31
2022-10-10T03:30:03.251Z,100981.66
2022-10-10T03:32:31.107Z,100982.50
2022-10-10T03:34:59.324Z,100978.94
2022-10-10T03:37:27.196Z,100980.81
2022-10-10T03:39:55.226Z,100986.91
2022-10-10T03:42:24.471Z,100988.78
2022-10-10T03:44:52.632Z,100987.94
2022-10-10T03:47:20.535Z,100982.50
2022-10-10T03:49:48.392Z,100982.72
2022-10-10T03:52:16.469Z,100976.41
2022-10-10T03:54:44.870Z,100977.72
2022-10-10T03:57:12.730Z,100978.56
2022-10-10T03:59:41.970Z,100975.00
2022-10-10T04:02:09.852Z,100975.84
2022-10-10T04:04:38.191Z,100965.97
2022-10-10T04:07:06.017Z,100980.44
2022-10-10T04:09:33.908Z,100971.22
2022-10-10T04:12:01.785Z,100969.56
2022-10-10T04:14:30.130Z,100969.09
2022-10-10T04:17:02.968Z,100974.53
2022-10-10T04:19:31.269Z,100969.91
2022-10-10T04:21:59.142Z,100966.16
2022-10-10T04:24:27.394Z,100967.81
2022-10-10T04:26:55.612Z,100965.94
2022-10-10T04:29:23.500Z,100971.97
2022-10-10T04:31:51.344Z,100968.66
2022-10-10T04:34:21.012Z,100964.84
2022-10-10T04:36:48.909Z,100966.50
2022-10-10T04:39:16.758Z,100958.34
2022-10-10T04:41:44.590Z,100955.41
2022-10-10T04:44:12.917Z,100951.63
2022-10-10T04:46:40.800Z,100953.50
2022-10-10T04:49:08.930Z,100963.34
2022-10-10T04:51:38.569Z,100966.09
2022-10-10T04:54:06.911Z,100955.19
2022-10-10T04:56:34.838Z,100960.69
2022-10-10T04:59:02.722Z,100961.69
2022-10-10T05:01:30.580Z,100969.63
2022-10-10T05:03:59.243Z,100967.97
2022-10-10T05:06:27.174Z,100967.13
2022-10-10T05:08:56.400Z,100972.59
2022-10-10T05:11:24.242Z,100963.56
2022-10-10T05:13:52.504Z,100967.13
2022-10-10T05:16:20.354Z,100967.34
2022-10-10T05:18:48.257Z,100971.97
2022-10-10T05:21:16.098Z,100970.06
2022-10-10T05:23:44.215Z,100974.69
2022-10-10T05:26:14.055Z,100968.41
2022-10-10T05:28:42.025Z,100964.84
2022-10-10T05:31:10.605Z,100964.84
2022-10-10T05:33:38.900Z,100965.69
2022-10-10T05:36:08.420Z,100964.84
2022-10-10T05:38:36.346Z,100964.03
2022-10-10T05:41:04.368Z,100970.06
2022-10-10T05:43:35.237Z,100960.47
2022-10-10T05:46:03.120Z,100968.19
2022-10-10T05:48:30.971Z,100961.91
2022-10-10T05:50:59.897Z,100962.75
2022-10-10T05:53:28.624Z,100965.47
2022-10-10T05:55:56.507Z,100970.06
2022-10-10T05:58:24.400Z,100969.25
2022-10-10T06:00:55.028Z,100968.19
2022-10-10T06:03:22.898Z,100963.56
2022-10-10T06:05:53.646Z,100966.31
2022-10-10T06:08:21.460Z,100972.59
2022-10-10T06:10:49.346Z,100971.75
2022-10-10T06:13:23.075Z,100972.81
2022-10-10T06:15:52.301Z,100975.53
2022-10-10T06:18:21.569Z,100974.47
2022-10-10T06:20:49.432Z,100965.47
2022-10-10T06:23:18.250Z,100974.47
2022-10-10T06:25:46.105Z,100970.28
2022-10-10T06:28:14.367Z,100980.97
2022-10-10T06:30:42.712Z,100979.31
2022-10-10T06:33:11.088Z,100981.19
2022-10-10T06:35:43.609Z,100983.13
2022-10-10T06:38:11.501Z,100983.91
2022-10-10T06:40:39.387Z,100991.28
2022-10-10T06:43:11.670Z,100988.31
2022-10-10T06:45:39.631Z,100993.19
2022-10-10T06:48:07.477Z,100996.13
2022-10-10T06:50:35.423Z,100996.13
2022-10-10T06:53:05.122Z,100998.00
2022-10-10T06:55:32.973Z,101001.78
2022-10-10T06:58:00.855Z,101000.72
2022-10-10T07:00:29.244Z,101005.34
2022-10-10T07:02:57.096Z,101010.78
2022-10-10T07:05:25.009Z,100999.06
2022-10-10T07:07:52.881Z,100990.88
2022-10-10T07:10:22.154Z,100998.00
2022-10-10T07:12:50.112Z,101003.25
2022-10-10T07:15:18.485Z,101003.47
2022-10-10T07:17:50.521Z,101002.63
2022-10-10T07:20:21.509Z,101003.47
2022-10-10T07:22:49.653Z,101005.97
2022-10-10T07:25:18.390Z,101014.13
2022-10-10T07:27:47.765Z,101007.03
2022-10-10T07:30:15.618Z,101009.13
2022-10-10T07:32:43.525Z,101015.19
2022-10-10T07:35:12.412Z,101016.03
2022-10-10T07:37:40.521Z,101015.19
2022-10-10T07:40:10.025Z,101013.31
2022-10-10T07:42:37.887Z,101022.53
2022-10-10T07:45:12.111Z,101026.09
2022-10-10T07:47:40.008Z,101018.13
2022-10-10T07:50:08.784Z,101013.53
2022-10-10T07:52:36.627Z,101015.19
2022-10-10T07:55:05.438Z,101015.41
2022-10-10T07:57:35.003Z,101018.97
2022-10-10T08:00:03.610Z,101016.25
2022-10-10T08:02:32.965Z,101014.56
2022-10-10T08:05:01.207Z,101017.28
2022-10-10T08:07:29.178Z,101020.84
2022-10-10T08:09:57.121Z,101013.53
2022-10-10T08:12:24.982Z,101011.84
2022-10-10T08:14:53.286Z,101012.94
2022-10-10T08:17:21.190Z,101017.09
2022-10-10T08:19:50.520Z,101021.69
2022-10-10T08:22:18.357Z,101020.84
2022-10-10T08:24:46.767Z,101011.63
2022-10-10T08:27:17.600Z,101015.41
2022-10-10T08:29:45.467Z,101024.41
2022-10-10T08:32:13.336Z,101017.09
2022-10-10T08:34:41.833Z,101012.69
2022-10-10T08:37:11.123Z,101020.84
2022-10-10T08:39:38.994Z,101023.38
2022-10-10T08:42:06.942Z,101028.81
2022-10-10T08:44:38.847Z,101026.94
2022-10-10T08:47:08.572Z,101027.97
2022-10-10T08:49:37.926Z,101027.75
2022-10-10T08:52:08.141Z,101029.03
2022-10-10T08:54:37.621Z,101031.53
2022-10-10T08:57:06.787Z,101035.09
2022-10-10T08:59:36.227Z,101031.53
2022-10-10T09:02:50.536Z,101031.53
2022-10-10T09:05:25.676Z,101023.41
2022-10-10T09:08:16.439Z,101033.44
2022-10-10T09:10:50.471Z,101033.44
2022-10-10T09:13:25.696Z,101038.25
2022-10-10T09:15:55.793Z,101037.22
2022-10-10T09:18:30.926Z,101032.81
2022-10-10T09:21:01.166Z,100953.81
2022-10-10T09:23:31.005Z,101041.59
2022-10-10T09:26:03.668Z,101045.16
2022-10-10T09:28:37.445Z,101039.94
2022-10-10T09:31:07.176Z,101047.06
2022-10-10T09:33:37.587Z,101019.75
2022-10-10T09:36:07.065Z,101047.28
2022-10-10T09:38:36.945Z,101047.06
2022-10-10T09:41:09.247Z,101049.78
2022-10-10T09:43:38.729Z,101034.47
2022-10-10T09:46:06.742Z,101035.31
2022-10-10T09:48:35.571Z,101035.31
2022-10-10T09:51:04.024Z,101037.00
2022-10-10T09:53:32.549Z,101037.00
2022-10-10T09:56:00.482Z,101035.09
2022-10-10T09:58:32.831Z,101038.88
2022-10-10T10:01:18.277Z,101037.00
2022-10-10T10:03:46.997Z,101039.72
2022-10-10T10:06:15.941Z,101037.00
2022-10-10T10:08:47.924Z,101029.03
2022-10-10T10:11:29.153Z,101037.84
2022-10-10T10:14:02.289Z,101037.84
2022-10-10T10:16:34.525Z,101039.72
2022-10-10T10:19:02.446Z,101041.41
2022-10-10T10:21:31.410Z,101043.28
2022-10-10T10:24:00.173Z,101038.03
2022-10-10T10:26:45.670Z,101035.09
2022-10-10T10:29:30.447Z,101034.28
2022-10-10T10:32:02.830Z,101037.00
2022-10-10T10:34:39.159Z,101046.00
2022-10-10T10:37:14.868Z,101043.50
2022-10-10T10:39:47.076Z,101050.63
2022-10-10T10:42:23.371Z,101047.91
2022-10-10T10:44:53.811Z,101051.47
2022-10-10T10:47:32.372Z,101052.28
2022-10-10T10:50:06.669Z,101058.78
2022-10-10T10:52:50.603Z,101048.72
2022-10-10T10:55:23.016Z,101055.03
2022-10-10T10:58:37.185Z,101048.09
2022-10-10T11:01:28.665Z,101049.56
2022-10-10T11:05:18.282Z,101052.28
2022-10-10T11:07:17.405Z,101049.56
2022-10-10T11:09:50.051Z,101061.06
2022-10-10T11:12:23.355Z,101043.88
2022-10-10T11:14:57.946Z,101052.88
2022-10-10T11:17:36.246Z,101057.50
2022-10-10T11:20:08.204Z,101044.97
2022-10-10T11:22:39.341Z,101046.84
2022-10-10T11:25:14.788Z,101050.41
2022-10-10T11:27:46.491Z,101045.78
2022-10-10T11:30:18.465Z,101049.31
2022-10-10T11:32:52.705Z,101047.69
2022-10-10T11:35:35.193Z,101046.59
2022-10-10T11:38:09.928Z,101030.16
2022-10-10T11:40:47.238Z,101041.16
2022-10-10T11:43:22.368Z,101039.88
2022-10-10T11:46:02.673Z,101045.97
2022-10-10T11:48:38.816Z,101044.06
2022-10-10T11:51:16.248Z,101058.50
2022-10-10T11:53:44.737Z,101046.78
2022-10-10T11:56:16.877Z,101042.97
2022-10-10T11:58:45.849Z,101044.88
2022-10-10T12:01:17.367Z,101035.88
2022-10-10T12:03:48.930Z,101038.38
2022-10-10T12:06:24.837Z,101037.31
2022-10-10T12:08:57.346Z,101036.25
2022-10-10T12:11:27.955Z,101043.59
2022-10-10T12:13:56.683Z,101045.28
2022-10-10T12:16:30.551Z,101021.91
2022-10-10T12:19:06.294Z,101048.00
2022-10-10T12:21:53.853Z,101045.88
2022-10-10T12:24:23.122Z,101040.41
2022-10-10T12:27:25.904Z,101044.44
2022-10-10T12:30:17.369Z,101030.72
2022-10-10T12:32:47.172Z,101031.91
2022-10-10T12:35:36.102Z,101040.88
2022-10-10T12:38:21.973Z,101046.53
2022-10-10T12:41:12.380Z,101031.88
2022-10-10T12:43:44.160Z,101033.97
2022-10-10T12:46:28.968Z,101036.69
2022-10-10T12:49:16.909Z,101033.97
2022-10-10T12:51:47.363Z,101019.34
2022-10-10T12:54:26.646Z,101033.97
2022-10-10T12:57:00.384Z,101034.81
2022-10-10T12:59:29.406Z,101030.19
2022-10-10T13:02:00.690Z,101038.38
2022-10-10T13:04:29.344Z,101025.56
2022-10-10T13:07:00.221Z,101023.91
2022-10-10T13:09:33.928Z,101026.63
2022-10-10T13:12:10.019Z,101020.59
2022-10-10T13:14:41.748Z,101022.00
2022-10-10T13:17:26.808Z,101016.56
2022-10-10T13:19:55.104Z,101022.00
2022-10-10T13:22:25.930Z,101023.06
2022-10-10T13:24:53.854Z,101030.19
2022-10-10T13:27:23.190Z,101020.34
2022-10-10T13:29:51.195Z,101025.78
2022-10-10T13:32:20.134Z,101026.63
2022-10-10T13:34:50.414Z,101022.69
2022-10-10T13:37:20.836Z,101032.69
2022-10-10T13:39:50.856Z,101027.47
2022-10-10T13:42:38.631Z,101028.97
2022-10-10T13:45:30.934Z,101040.88
2022-10-10T13:48:11.725Z,101041.94
2022-10-10T13:51:01.911Z,101038.38
2022-10-10T13:53:37.739Z,101039.19
2022-10-10T13:56:08.559Z,101028.34
2022-10-10T13:58:41.058Z,101042.16
2022-10-10T14:01:31.545Z,101038.03
2022-10-10T14:04:01.968Z,101053.88
2022-10-10T14:06:29.813Z,101052.00
2022-10-10T14:08:59.076Z,101045.50
2022-10-10T14:11:28.646Z,101049.06
2022-10-10T14:13:58.803Z,101050.72
2022-10-10T14:16:27.086Z,101046.34
2022-10-10T14:18:54.972Z,101051.78
2022-10-10T14:21:24.227Z,101050.94
2022-10-10T14:23:52.143Z,101052.63
2022-10-10T14:26:20.811Z,101060.56
2022-10-10T14:28:50.239Z,101062.91
2022-10-10T14:31:18.539Z,101064.09
2022-10-10T14:33:46.400Z,101069.56
2022-10-10T14:36:14.907Z,101075.00
2022-10-10T14:38:43.120Z,101070.41
2022-10-10T14:41:12.984Z,101064.94
2022-10-10T14:43:45.470Z,101081.09
2022-10-10T14:46:17.869Z,101087.59
2022-10-10T14:48:46.093Z,101085.50
2022-10-10T14:51:34.380Z,101095.34
2022-10-10T14:54:11.984Z,101100.53
2022-10-10T14:57:07.600Z,101112.28
2022-10-10T14:59:47.505Z,101111.44
2022-10-10T15:02:20.301Z,101118.56
2022-10-10T15:04:48.260Z,101116.91
2022-10-10T15:07:16.241Z,101124.28
2022-10-10T15:10:03.966Z,101129.72
2022-10-10T15:12:32.549Z,101139.78
2022-10-10T15:15:00.399Z,101131.63
2022-10-10T15:17:30.548Z,101138.97
2022-10-10T15:19:58.477Z,101138.13
2022-10-10T15:22:27.495Z,101147.97
2022-10-10T15:24:55.494Z,101147.13
2022-10-10T15:27:23.472Z,101154.47
2022-10-10T15:29:51.314Z,101160.75
2022-10-10T15:32:19.445Z,101155.53
2022-10-10T15:34:50.389Z,101170.81
2022-10-10T15:37:18.266Z,101174.59
2022-10-10T15:39:46.225Z,101173.78
2022-10-10T15:42:19.911Z,101185.50
2022-10-10T15:44:50.561Z,101181.31
2022-10-10T15:47:19.419Z,101166.75
2022-10-10T15:49:47.759Z,101190.56
2022-10-10T15:52:17.131Z,101197.47
2022-10-10T15:54:48.498Z,101198.50
2022-10-10T15:57:18.719Z,101202.53
2022-10-10T15:59:47.479Z,101213.81
2022-10-10T16:02:15.459Z,101216.53
2022-10-10T16:04:43.329Z,101220.94
2022-10-10T16:07:29.502Z,101225.56
2022-10-10T16:10:01.270Z,101226.41
2022-10-10T16:12:29.204Z,101233.72
2022-10-10T16:14:57.062Z,101240.03
2022-10-10T16:17:24.920Z,101244.63
2022-10-10T16:19:52.822Z,101250.09
2022-10-10T16:22:21.091Z,101253.66
2022-10-10T16:25:21.368Z,101259.94
2022-10-10T16:27:38.585Z,101267.50
2022-10-10T16:30:09.934Z,101272.94
2022-10-10T16:32:41.950Z,101281.97
2022-10-10T16:35:11.005Z,101282.81
2022-10-10T16:37:39.155Z,101292.03
2022-10-10T16:40:08.330Z,101289.31
2022-10-10T16:42:36.296Z,101294.53
2022-10-10T16:45:08.328Z,101296.44
2022-10-10T16:47:36.261Z,101305.44
2022-10-10T16:50:05.053Z,101307.13
2022-10-10T16:52:37.778Z,101317.19
2022-10-10T16:55:06.632Z,101310.06
2022-10-10T16:57:35.154Z,101312.78
2022-10-10T17:00:03.232Z,101319.75
2022-10-10T17:02:32.475Z,101327.47
2022-10-10T17:05:00.638Z,101336.47
2022-10-10T17:07:28.529Z,101335.66
2022-10-10T17:09:56.522Z,101339.66
2022-10-10T17:12:24.433Z,101339.22
2022-10-10T17:14:52.347Z,101346.56
2022-10-10T17:17:20.414Z,101352.84
2022-10-10T17:19:49.677Z,101352.84
2022-10-10T17:22:17.928Z,101358.28
2022-10-10T17:24:45.833Z,101372.75
2022-10-10T17:27:14.046Z,101383.66
2022-10-10T17:29:42.095Z,101376.53
2022-10-10T17:32:10.267Z,101389.13
2022-10-10T17:34:38.113Z,101395.63
2022-10-10T17:37:07.390Z,101407.34
2022-10-10T17:39:35.561Z,101408.41
2022-10-10T17:42:04.629Z,101404.91
2022-10-10T17:44:37.338Z,101412.81
2022-10-10T17:47:08.333Z,101416.59
2022-10-10T17:49:36.262Z,101427.50
2022-10-10T17:52:04.152Z,101441.13
2022-10-10T17:54:33.545Z,101447.66
2022-10-10T17:57:02.508Z,101452.03
2022-10-10T17:59:30.355Z,101462.94
2022-10-10T18:01:58.206Z,101467.53
2022-10-10T18:04:26.135Z,101464.81
2022-10-10T18:06:54.031Z,101466.09
2022-10-10T18:09:21.893Z,101472.19
2022-10-10T18:11:51.409Z,101489.34
2022-10-10T18:14:19.308Z,101491.25
2022-10-10T18:16:47.179Z,101504.06
2022-10-10T18:19:15.108Z,101511.41
2022-10-10T18:21:42.964Z,101510.97
2022-10-10T18:24:10.827Z,101515.38
2022-10-10T18:26:38.766Z,101522.06
2022-10-10T18:29:07.994Z,101528.34
2022-10-10T18:31:36.753Z,101531.31
2022-10-10T18:34:05.905Z,101534.88
2022-10-10T18:36:35.409Z,101539.50
2022-10-10T18:39:05.906Z,101541.38
2022-10-10T18:41:35.030Z,101536.34
2022-10-10T18:44:03.102Z,101544.09
2022-10-10T18:46:32.438Z,101555.00
2022-10-10T18:49:01.462Z,101561.31
2022-10-10T18:51:30.320Z,101564.88
2022-10-10T18:54:00.877Z,101562.13
2022-10-10T18:56:29.201Z,101575.78
2022-10-10T18:58:58.263Z,101571.16
2022-10-10T19:01:27.315Z,101581.44
2022-10-10T19:03:56.664Z,101585.00
2022-10-10T19:06:24.904Z,101595.66
2022-10-10T19:08:52.844Z,101584.75
2022-10-10T19:11:22.304Z,101595.91
2022-10-10T19:13:50.419Z,101598.63
2022-10-10T19:16:18.515Z,101600.31
2022-10-10T19:18:46.373Z,101602.19
2022-10-10T19:21:16.303Z,101605.75
2022-10-10T19:23:44.442Z,101612.03
2022-10-10T19:26:14.090Z,101616.66
2022-10-10T19:28:42.023Z,101620.44
2022-10-10T19:31:11.291Z,101619.59
2022-10-10T19:33:39.219Z,101626.94
2022-10-10T19:36:09.212Z,101625.03
2022-10-10T19:38:39.751Z,101627.78
2022-10-10T19:41:08.188Z,101637.84
2022-10-10T19:43:36.107Z,101637.00
2022-10-10T19:46:06.001Z,101646.00
2022-10-10T19:48:36.818Z,101654.84
2022-10-10T19:51:05.165Z,101659.44
2022-10-10T19:53:33.476Z,101663.81
2022-10-10T19:56:03.992Z,101668.47
2022-10-10T19:58:32.229Z,101666.97
2022-10-10T20:01:00.423Z,101678.28
2022-10-10T20:03:28.363Z,101685.63
2022-10-10T20:06:00.830Z,101688.16
2022-10-10T20:08:29.134Z,101698.22
2022-10-10T20:10:57.310Z,101697.38
2022-10-10T20:13:26.602Z,101699.06
2022-10-10T20:15:54.426Z,101706.41
2022-10-10T20:18:22.510Z,101711.00
2022-10-10T20:20:51.714Z,101712.69
2022-10-10T20:23:20.709Z,101708.50
2022-10-10T20:25:48.583Z,101716.69
2022-10-10T20:28:17.576Z,101724.03
2022-10-10T20:30:48.696Z,101725.06
2022-10-10T20:33:16.608Z,101734.09
2022-10-10T20:35:46.449Z,101733.03
2022-10-10T20:38:14.592Z,101748.56
2022-10-10T20:40:43.624Z,101746.88
2022-10-10T20:43:12.106Z,101751.28
2022-10-10T20:45:40.383Z,101751.28
2022-10-10T20:48:09.902Z,101768.69
2022-10-10T20:50:38.220Z,101768.50
2022-10-10T20:53:06.136Z,101771.22
2022-10-10T20:55:34.167Z,101774.13
2022-10-10T20:58:02.102Z,101771.41
2022-10-10T21:00:30.310Z,101777.72
2022-10-10T21:02:58.242Z,101774.13
2022-10-10T21:05:27.451Z,101780.44
2022-10-10T21:07:55.289Z,101778.09
2022-10-10T21:10:23.447Z,101786.94
2022-10-10T21:12:51.440Z,101791.53
2022-10-10T21:15:19.539Z,101798.03
2022-10-10T21:17:49.357Z,101801.59
2022-10-10T21:20:17.601Z,101799.91
2022-10-10T21:22:46.868Z,101811.66
2022-10-10T21:25:14.776Z,101813.34
2022-10-10T21:27:42.669Z,101808.72
2022-10-10T21:30:11.660Z,101816.91
2022-10-10T21:32:39.543Z,101816.28
2022-10-10T21:35:08.097Z,101824.44
2022-10-10T21:37:36.629Z,101826.13
2022-10-10T21:40:07.794Z,101819.63
2022-10-10T21:42:35.699Z,101823.41
2022-10-10T21:45:03.618Z,101827.81
2022-10-10T21:47:31.546Z,101824.69
2022-10-10T21:49:59.456Z,101835.16
2022-10-10T21:52:27.411Z,101836.00
2022-10-10T21:54:55.311Z,101828.00
2022-10-10T21:57:24.668Z,101833.69
2022-10-10T21:59:52.532Z,101831.59
2022-10-10T22:02:20.436Z,101837.03
2022-10-10T22:04:51.144Z,101833.47
2022-10-10T22:07:19.032Z,101832.00
2022-10-10T22:09:46.944Z,101838.06
2022-10-10T22:12:16.474Z,101836.19
2022-10-10T22:14:45.695Z,101833.47
2022-10-10T22:17:13.657Z,101831.81
2022-10-10T22:19:41.686Z,101839.16
2022-10-10T22:22:09.845Z,101842.91
2022-10-10T22:24:37.848Z,101848.38
2022-10-10T22:27:05.701Z,101842.06
2022-10-10T22:29:33.567Z,101846.69
2022-10-10T22:32:03.133Z,101847.53
2022-10-10T22:34:30.982Z,101850.44
2022-10-10T22:36:58.870Z,101843.94
2022-10-10T22:39:28.121Z,101863.03
2022-10-10T22:41:56.279Z,101861.34
2022-10-10T22:44:24.127Z,101859.47
2022-10-10T22:46:51.993Z,101859.47
2022-10-10T22:49:21.535Z,101855.91
2022-10-10T22:51:49.446Z,101867.63
2022-10-10T22:54:17.381Z,101866.78
2022-10-10T22:56:45.344Z,101869.53
2022-10-10T22:59:13.273Z,101871.41
2022-10-10T23:01:41.561Z,101872.44
2022-10-10T23:04:10.332Z,101877.91
2022-10-10T23:06:39.577Z,101882.31
2022-10-10T23:09:07.503Z,101880.63
2022-10-10T23:11:35.637Z,101881.47
2022-10-10T23:14:03.540Z,101885.88
2022-10-10T23:16:32.929Z,101885.03
2022-10-10T23:19:00.899Z,101889.66
2022-10-10T23:21:29.196Z,101898.66
2022-10-10T23:23:58.455Z,101894.06
2022-10-10T23:26:26.319Z,101894.25
2022-10-10T23:28:54.285Z,101887.16
2022-10-10T23:31:22.493Z,101897.81
2022-10-10T23:33:50.332Z,101899.69
2022-10-10T23:36:18.203Z,101899.94
2022-10-10T23:38:46.500Z,101898.03
2022-10-10T23:41:16.062Z,101896.97
2022-10-10T23:43:44.178Z,101900.53
2022-10-10T23:46:12.077Z,101895.50
2022-10-10T23:48:40.286Z,101892.13
2022-10-10T23:51:08.261Z,101893.81
2022-10-10T23:53:36.225Z,101903.88
2022-10-10T23:56:04.458Z,101908.31
2022-10-10T23:58:33.920Z,101907.44
